»·PEaware :: N3010W KSBA-KSBP

N3010W :: KSBA-KSBP

FLIGHT INFORMATION

Flight Status: Arrived
Operator: Privately registered:
United States
More flights under this callsign
Pilot: Bryan N. (13862)
Aircraft: PIPER PA-28 CHEROKEE ARCHER
(P28A)
More flights by this aircraft type
Origin: KSBA Santa Barbara Mun
United States
Destination: KSBP San Luis Co Regl
United States
More flights between these airports :: More routes between these airports
Route: +GVO V27 MQO
File this flight plan on PilotEdge
Remarks: +CW / Simulating IFR conditions
Altitude:
(Current/Filed)
6,000ft
Speed:
(Current/Filed)
115kts
Departed: 20-Jul-19 02:26 PM
Arrived: 20-Jul-19 03:30 PM
Distance/Time
Traveled:
63nm/1:04
Distance/Time
To Go:
Arrived

Flight Plot

Page will automatically refresh every two minutes.


Map Options




Map Legend


Flown Route
Filed Route
Departure Airport
Arrival Airport
Navaid (VOR, NDB)
Fix

Horizontal Profiles

Position Reports

Time Latitude Longitude Heading Altitude Ground
Speed
20-Jul-19 14:02 34.431445 -119.832847 357 13ft 0kts
20-Jul-19 14:03 34.431445 -119.832847 357 13ft 0kts
20-Jul-19 14:04 34.431445 -119.832847 357 13ft 0kts
20-Jul-19 14:05 34.431445 -119.832847 357 13ft 0kts
20-Jul-19 14:06 34.431445 -119.832847 357 13ft 0kts
20-Jul-19 14:07 34.431445 -119.832847 357 13ft 0kts
20-Jul-19 14:08 34.431447 -119.832847 357 13ft 0kts
20-Jul-19 14:09 34.431451 -119.832847 357 13ft 0kts
20-Jul-19 14:10 34.431454 -119.832847 357 13ft 0kts
20-Jul-19 14:11 34.431457 -119.832847 357 13ft 0kts
20-Jul-19 14:12 34.431461 -119.832847 357 13ft 0kts
20-Jul-19 14:13 34.431464 -119.832847 357 13ft 0kts
20-Jul-19 14:14 34.431471 -119.832848 357 13ft 0kts
20-Jul-19 14:15 34.432304 -119.833056 276 13ft 0kts
20-Jul-19 14:16 34.432098 -119.833266 181 13ft 7kts
20-Jul-19 14:17 34.430723 -119.831923 162 13ft 7kts
20-Jul-19 14:18 34.429095 -119.833688 267 13ft 10kts
20-Jul-19 14:19 34.428636 -119.835112 180 13ft 0kts
20-Jul-19 14:20 34.428633 -119.835112 180 13ft 0kts
20-Jul-19 14:21 34.428626 -119.835112 180 13ft 0kts
20-Jul-19 14:22 34.428620 -119.835112 180 13ft 0kts
20-Jul-19 14:23 34.428618 -119.835112 180 13ft 0kts
20-Jul-19 14:24 34.428580 -119.835113 183 13ft 3kts
20-Jul-19 14:25 34.427868 -119.837119 268 13ft 49kts
20-Jul-19 14:26 34.427892 -119.861652 267 813ft 77kts
20-Jul-19 14:27 34.427413 -119.888344 266 1714ft 80kts
20-Jul-19 14:28 34.426334 -119.915528 267 2560ft 82kts
20-Jul-19 14:29 34.425087 -119.943395 267 3346ft 84kts
20-Jul-19 14:30 34.423850 -119.972256 266 4070ft 86kts
20-Jul-19 14:31 34.422729 -120.001679 268 4741ft 87kts
20-Jul-19 14:32 34.433488 -120.025243 318 5316ft 91kts
20-Jul-19 14:33 34.454992 -120.044092 323 5817ft 96kts
20-Jul-19 14:34 34.478223 -120.064110 326 6174ft 114kts
20-Jul-19 14:35 34.504580 -120.087916 318 6269ft 122kts
20-Jul-19 14:36 34.532399 -120.113773 322 6185ft 128kts
20-Jul-19 14:37 34.561297 -120.139714 322 6110ft 127kts
20-Jul-19 14:38 34.589836 -120.165784 322 6068ft 123kts
20-Jul-19 14:39 34.618043 -120.189831 322 6036ft 124kts
20-Jul-19 14:40 34.646023 -120.214515 323 5994ft 124kts
20-Jul-19 14:41 34.673926 -120.239157 322 5990ft 122kts
20-Jul-19 14:42 34.701428 -120.263534 324 5991ft 122kts
20-Jul-19 14:43 34.729156 -120.287631 323 5997ft 121kts
20-Jul-19 14:44 34.756378 -120.312266 321 5997ft 121kts
20-Jul-19 14:45 34.783322 -120.336357 323 6049ft 120kts
20-Jul-19 14:46 34.810165 -120.360675 321 6080ft 120kts
20-Jul-19 14:47 34.836842 -120.385402 321 6103ft 120kts
20-Jul-19 14:48 34.863623 -120.409835 321 6119ft 121kts
20-Jul-19 14:49 34.890999 -120.434101 321 6107ft 122kts
20-Jul-19 14:50 34.918385 -120.458553 322 6091ft 122kts
20-Jul-19 14:51 34.945947 -120.482917 322 6081ft 122kts
20-Jul-19 14:52 34.972921 -120.508027 318 6058ft 122kts
20-Jul-19 14:53 34.999242 -120.532976 323 6117ft 119kts
20-Jul-19 14:54 35.026208 -120.556680 324 6152ft 121kts
20-Jul-19 14:55 35.055136 -120.580488 319 6032ft 123kts
20-Jul-19 14:56 35.081935 -120.605041 322 6128ft 118kts
20-Jul-19 14:57 35.109478 -120.630063 322 5974ft 128kts
20-Jul-19 14:58 35.137804 -120.655562 321 5950ft 121kts
20-Jul-19 14:59 35.164809 -120.679769 321 5972ft 121kts
20-Jul-19 15:00 35.192237 -120.704504 322 5680ft 125kts
20-Jul-19 15:01 35.221022 -120.730654 323 5079ft 128kts
20-Jul-19 15:02 35.248843 -120.757553 311 4547ft 124kts
20-Jul-19 15:03 35.257042 -120.796207 274 4050ft 121kts
20-Jul-19 15:04 35.266805 -120.833306 313 3664ft 118kts
20-Jul-19 15:05 35.291453 -120.858199 325 3510ft 113kts
20-Jul-19 15:06 35.281964 -120.881087 161 3337ft 120kts
20-Jul-19 15:07 35.266891 -120.847071 99 3085ft 118kts
20-Jul-19 15:08 35.260508 -120.807368 100 2917ft 120kts
20-Jul-19 15:09 35.253558 -120.768407 102 2888ft 117kts
20-Jul-19 15:11 35.248342 -120.733906 98 2532ft 91kts
20-Jul-19 15:12 35.243158 -120.702865 101 1911ft 97kts
20-Jul-19 15:13 35.238394 -120.672153 101 1610ft 91kts
20-Jul-19 15:14 35.233067 -120.640914 124 1298ft 95kts
20-Jul-19 15:15 35.207581 -120.639880 191 2103ft 102kts
20-Jul-19 15:16 35.179394 -120.645468 190 2819ft 107kts
20-Jul-19 15:17 35.155448 -120.633178 125 3514ft 109kts
20-Jul-19 15:18 35.136938 -120.599738 123 3702ft 123kts
20-Jul-19 15:19 35.117620 -120.564732 125 3744ft 125kts
20-Jul-19 15:20 35.097795 -120.529489 124 3701ft 126kts
20-Jul-19 15:21 35.077789 -120.493938 114 3608ft 129kts
20-Jul-19 15:22 35.099355 -120.463468 35 3322ft 128kts
20-Jul-19 15:23 35.130022 -120.466699 333 3129ft 117kts
20-Jul-19 15:24 35.153072 -120.494848 308 2952ft 115kts
20-Jul-19 15:25 35.171200 -120.526000 306 2644ft 114kts
20-Jul-19 15:26 35.187619 -120.554330 305 2094ft 98kts
20-Jul-19 15:27 35.202576 -120.580290 308 1503ft 92kts
20-Jul-19 15:28 35.217456 -120.605815 306 915ft 93kts
20-Jul-19 15:29 35.230037 -120.628215 307 377ft 68kts
20-Jul-19 15:30 35.237714 -120.640142 6 215ft 12kts
20-Jul-19 15:30 35.238465 -120.640021 283 215ft 0kts

Navigation Log

Ident Type
Flight plan parsing failed, navigation log unavailable